createdAt,value
2023-11-15T00:00:15.006Z,0.71
2023-11-15T00:01:15.001Z,0.71
2023-11-15T00:02:14.975Z,0.72
2023-11-15T00:03:15.099Z,0.72
2023-11-15T00:04:14.994Z,0.70
2023-11-15T00:05:14.981Z,0.72
2023-11-15T00:06:15.064Z,0.71
2023-11-15T00:07:14.939Z,0.71
2023-11-15T00:08:14.938Z,0.72
2023-11-15T00:09:14.918Z,0.71
2023-11-15T00:10:15.063Z,0.70
2023-11-15T00:11:14.896Z,0.72
2023-11-15T00:12:14.885Z,0.71
2023-11-15T00:13:14.890Z,0.71
2023-11-15T00:14:14.879Z,0.70
2023-11-15T00:15:14.864Z,0.71
2023-11-15T00:16:14.887Z,0.70
2023-11-15T00:17:14.842Z,0.70
2023-11-15T00:18:15.135Z,0.70
2023-11-15T00:19:14.849Z,0.69
2023-11-15T00:20:14.945Z,0.70
2023-11-15T00:21:14.804Z,0.70
2023-11-15T00:22:14.795Z,0.70
2023-11-15T00:23:14.797Z,0.70
2023-11-15T00:24:14.794Z,0.70
2023-11-15T00:25:17.314Z,0.70
2023-11-15T00:26:14.752Z,0.70
2023-11-15T00:27:14.761Z,0.70
2023-11-15T00:28:14.758Z,0.70
2023-11-15T00:29:24.132Z,0.70
2023-11-15T00:30:14.728Z,0.70
2023-11-15T00:31:14.716Z,0.70
2023-11-15T00:32:14.702Z,0.70
2023-11-15T00:33:14.792Z,0.70
2023-11-15T00:34:14.733Z,0.70
2023-11-15T00:35:14.775Z,0.70
2023-11-15T00:36:14.696Z,0.69
2023-11-15T00:37:14.681Z,0.69
2023-11-15T00:38:14.656Z,0.69
2023-11-15T00:39:14.653Z,0.69
2023-11-15T00:40:14.653Z,0.68
2023-11-15T00:41:14.634Z,0.68
2023-11-15T00:42:14.622Z,0.68
2023-11-15T00:43:14.606Z,0.68
2023-11-15T00:44:14.598Z,0.68
2023-11-15T00:45:14.593Z,0.68
2023-11-15T00:46:14.623Z,0.68
2023-11-15T00:47:14.573Z,0.68
2023-11-15T00:48:14.653Z,0.68
2023-11-15T00:49:14.557Z,0.67
2023-11-15T00:50:19.657Z,0.67
2023-11-15T00:51:14.538Z,0.67
2023-11-15T00:52:14.514Z,0.67
2023-11-15T00:53:14.515Z,0.68
2023-11-15T00:54:14.502Z,0.68
2023-11-15T00:55:14.496Z,0.67
2023-11-15T00:56:14.485Z,0.67
2023-11-15T00:57:14.481Z,0.66
2023-11-15T00:58:14.460Z,0.66
2023-11-15T00:59:14.457Z,0.67
2023-11-15T01:00:14.442Z,0.67
2023-11-15T01:01:14.446Z,0.66
2023-11-15T01:02:14.509Z,0.66
2023-11-15T01:03:14.517Z,0.66
2023-11-15T01:04:14.558Z,0.66
2023-11-15T01:05:14.417Z,0.66
2023-11-15T01:06:14.398Z,0.66
2023-11-15T01:07:14.385Z,0.66
2023-11-15T01:08:14.377Z,0.66
2023-11-15T01:09:14.365Z,0.66
2023-11-15T01:10:14.391Z,0.66
2023-11-15T01:11:14.346Z,0.66
2023-11-15T01:12:14.341Z,0.65
2023-11-15T01:13:14.329Z,0.65
2023-11-15T01:14:14.332Z,0.65
2023-11-15T01:15:14.323Z,0.65
2023-11-15T01:16:18.372Z,0.65
2023-11-15T01:17:14.298Z,0.65
2023-11-15T01:18:14.316Z,0.65
2023-11-15T01:19:14.286Z,0.65
2023-11-15T01:20:14.264Z,0.65
2023-11-15T01:21:14.267Z,0.66
2023-11-15T01:22:14.250Z,0.65
2023-11-15T01:23:14.243Z,0.65
2023-11-15T01:24:14.229Z,0.65
2023-11-15T01:25:14.221Z,0.64
2023-11-15T01:26:14.206Z,0.65
2023-11-15T01:27:14.202Z,0.65
2023-11-15T01:28:14.197Z,0.64
2023-11-15T01:29:14.182Z,0.65
2023-11-15T01:30:14.172Z,0.65
2023-11-15T01:31:14.161Z,0.64
2023-11-15T01:32:14.160Z,0.65
2023-11-15T01:33:14.211Z,0.65
2023-11-15T01:34:14.172Z,0.64
2023-11-15T01:35:14.141Z,0.64
2023-11-15T01:36:14.147Z,0.64
2023-11-15T01:37:14.127Z,0.64
2023-11-15T01:38:14.092Z,0.64
2023-11-15T01:39:14.109Z,0.64
2023-11-15T01:40:14.082Z,0.64
2023-11-15T01:41:14.069Z,0.64
2023-11-15T01:42:14.117Z,0.64
2023-11-15T01:43:14.063Z,0.64
2023-11-15T01:44:14.039Z,0.65
2023-11-15T01:45:14.050Z,0.64
2023-11-15T01:46:14.070Z,0.63
2023-11-15T01:47:14.020Z,0.63
2023-11-15T01:48:14.041Z,0.64
2023-11-15T01:49:14.005Z,0.64
2023-11-15T01:50:13.978Z,0.64
2023-11-15T01:51:13.979Z,0.64
2023-11-15T01:52:13.962Z,0.63
2023-11-15T01:53:13.971Z,0.64
2023-11-15T01:54:13.948Z,0.62
2023-11-15T01:55:13.943Z,0.63
2023-11-15T01:56:13.928Z,0.63
2023-11-15T01:57:13.928Z,0.63
2023-11-15T01:58:19.281Z,0.63
2023-11-15T01:59:13.906Z,0.63
2023-11-15T02:00:13.901Z,0.63
2023-11-15T02:01:13.925Z,0.63
2023-11-15T02:02:13.883Z,0.63
2023-11-15T02:03:13.952Z,0.63
2023-11-15T02:04:13.909Z,0.63
2023-11-15T02:05:13.862Z,0.63
2023-11-15T02:06:13.851Z,0.62
2023-11-15T02:07:13.844Z,0.62
2023-11-15T02:08:13.831Z,0.61
2023-11-15T02:09:13.828Z,0.62
2023-11-15T02:10:13.930Z,0.62
2023-11-15T02:11:13.812Z,0.62
2023-11-15T02:12:13.779Z,0.62
2023-11-15T02:13:13.785Z,0.62
2023-11-15T02:14:13.763Z,0.62
2023-11-15T02:15:13.766Z,0.62
2023-11-15T02:16:13.839Z,0.61
2023-11-15T02:17:13.746Z,0.61
2023-11-15T02:18:13.842Z,0.61
2023-11-15T02:19:13.723Z,0.61
2023-11-15T02:20:13.712Z,0.61
2023-11-15T02:21:13.712Z,0.61
2023-11-15T02:22:13.689Z,0.61
2023-11-15T02:23:13.691Z,0.61
2023-11-15T02:24:13.688Z,0.61
2023-11-15T02:25:13.674Z,0.61
2023-11-15T02:26:13.730Z,0.61
2023-11-15T02:27:13.651Z,0.61
2023-11-15T02:28:13.646Z,0.61
2023-11-15T02:29:13.635Z,0.61
2023-11-15T02:30:13.630Z,0.61
2023-11-15T02:31:13.714Z,0.60
2023-11-15T02:32:13.605Z,0.61
2023-11-15T02:33:13.662Z,0.60
2023-11-15T02:34:13.582Z,0.61
2023-11-15T02:35:34.724Z,0.60
2023-11-15T02:36:13.587Z,0.60
2023-11-15T02:37:13.569Z,0.61
2023-11-15T02:38:13.553Z,0.62
2023-11-15T02:39:13.549Z,0.62
2023-11-15T02:40:13.536Z,0.63
2023-11-15T02:41:13.550Z,0.63
2023-11-15T02:42:13.515Z,0.62
2023-11-15T02:43:13.510Z,0.62
2023-11-15T02:44:13.494Z,0.62
2023-11-15T02:45:13.483Z,0.62
2023-11-15T02:46:13.513Z,0.61
2023-11-15T02:47:13.468Z,0.61
2023-11-15T02:48:13.567Z,0.61
2023-11-15T02:49:13.481Z,0.61
2023-11-15T02:50:13.441Z,0.61
2023-11-15T02:51:13.427Z,0.61
2023-11-15T02:52:13.428Z,0.61
2023-11-15T02:53:13.405Z,0.60
2023-11-15T02:54:13.409Z,0.60
2023-11-15T02:55:13.387Z,0.61
2023-11-15T02:56:13.385Z,0.61
2023-11-15T02:57:13.377Z,0.60
2023-11-15T02:58:13.367Z,0.60
2023-11-15T02:59:13.344Z,0.60
2023-11-15T03:00:13.370Z,0.60
2023-11-15T03:01:13.353Z,0.60
2023-11-15T03:02:16.722Z,0.59
2023-11-15T03:03:13.393Z,0.60
2023-11-15T03:04:13.389Z,0.60
2023-11-15T03:05:13.320Z,0.60
2023-11-15T03:06:13.294Z,0.59
2023-11-15T03:07:13.296Z,0.59
2023-11-15T03:08:13.273Z,0.59
2023-11-15T03:09:13.266Z,0.59
2023-11-15T03:10:13.249Z,0.59
2023-11-15T03:11:13.246Z,0.58
2023-11-15T03:12:13.237Z,0.58
2023-11-15T03:13:13.233Z,0.58
2023-11-15T03:14:13.233Z,0.58
2023-11-15T03:15:13.241Z,0.58
2023-11-15T03:16:13.293Z,0.57
2023-11-15T03:17:13.185Z,0.57
2023-11-15T03:18:19.630Z,0.55
2023-11-15T03:19:13.179Z,0.55
2023-11-15T03:20:13.189Z,0.55
2023-11-15T03:21:13.166Z,0.56
2023-11-15T03:22:13.150Z,0.55
2023-11-15T03:23:13.132Z,0.55
2023-11-15T03:24:13.131Z,0.56
2023-11-15T03:25:13.111Z,0.55
2023-11-15T03:26:13.105Z,0.56
2023-11-15T03:27:13.096Z,0.55
2023-11-15T03:28:13.087Z,0.55
2023-11-15T03:29:13.091Z,0.54
2023-11-15T03:30:13.184Z,0.53
2023-11-15T03:31:13.074Z,0.54
2023-11-15T03:32:13.151Z,0.54
2023-11-15T03:33:13.146Z,0.55
2023-11-15T03:34:14.373Z,0.55
2023-11-15T03:35:13.022Z,0.54
2023-11-15T03:36:13.014Z,0.55
2023-11-15T03:37:13.020Z,0.55
2023-11-15T03:38:12.997Z,0.55
2023-11-15T03:39:13.084Z,0.55
2023-11-15T03:40:12.988Z,0.55
2023-11-15T03:41:12.978Z,0.54
2023-11-15T03:42:12.961Z,0.55
2023-11-15T03:43:12.951Z,0.54
2023-11-15T03:44:12.965Z,0.53
2023-11-15T03:45:12.943Z,0.53
2023-11-15T03:46:12.951Z,0.54
2023-11-15T03:47:12.907Z,0.54
2023-11-15T03:48:12.929Z,0.54
2023-11-15T03:49:12.889Z,0.53
2023-11-15T03:50:12.935Z,0.53
2023-11-15T03:51:12.895Z,0.54
2023-11-15T03:52:12.885Z,0.53
2023-11-15T03:53:12.855Z,0.55
2023-11-15T03:54:12.858Z,0.54
2023-11-15T03:55:12.851Z,0.54
2023-11-15T03:56:12.845Z,0.54
2023-11-15T03:57:12.852Z,0.52
2023-11-15T03:58:12.818Z,0.53
2023-11-15T03:59:12.811Z,0.54
2023-11-15T04:00:12.803Z,0.54
2023-11-15T04:01:12.794Z,0.53
2023-11-15T04:02:12.812Z,0.54
2023-11-15T04:03:13.088Z,0.53
2023-11-15T04:04:12.988Z,0.52
2023-11-15T04:05:12.791Z,0.52
2023-11-15T04:06:19.103Z,0.52
2023-11-15T04:07:12.739Z,0.52
2023-11-15T04:08:12.737Z,0.52
2023-11-15T04:09:12.714Z,0.53
2023-11-15T04:10:12.715Z,0.54
2023-11-15T04:11:12.696Z,0.54
2023-11-15T04:12:12.702Z,0.53
2023-11-15T04:13:12.676Z,0.53
2023-11-15T04:14:12.713Z,0.55
2023-11-15T04:15:12.670Z,0.54
2023-11-15T04:16:12.706Z,0.53
2023-11-15T04:17:12.684Z,0.53
2023-11-15T04:18:12.662Z,0.52
2023-11-15T04:19:12.633Z,0.52
2023-11-15T04:20:12.634Z,0.53
2023-11-15T04:21:12.609Z,0.53
2023-11-15T04:22:17.100Z,0.51
2023-11-15T04:23:12.594Z,0.51
2023-11-15T04:24:12.588Z,0.51
2023-11-15T04:25:12.578Z,0.52
2023-11-15T04:26:12.584Z,0.53
2023-11-15T04:27:12.561Z,0.53
2023-11-15T04:28:12.571Z,0.53
2023-11-15T04:29:12.540Z,0.54
2023-11-15T04:30:12.546Z,0.53
2023-11-15T04:31:12.623Z,0.52
2023-11-15T04:32:12.518Z,0.53
2023-11-15T04:33:13.748Z,0.53
2023-11-15T04:34:12.506Z,0.52
2023-11-15T04:35:12.497Z,0.53
2023-11-15T04:36:12.487Z,0.52
2023-11-15T04:37:12.466Z,0.54
2023-11-15T04:38:12.471Z,0.52
2023-11-15T04:39:12.544Z,0.50
2023-11-15T04:40:12.449Z,0.53
2023-11-15T04:41:12.440Z,0.52
2023-11-15T04:42:12.434Z,0.53
2023-11-15T04:43:12.429Z,0.51
2023-11-15T04:44:12.419Z,0.54
2023-11-15T04:45:12.446Z,0.52
2023-11-15T04:46:12.457Z,0.53
2023-11-15T04:47:12.376Z,0.53
2023-11-15T04:48:12.453Z,0.51
2023-11-15T04:49:12.357Z,0.52
2023-11-15T04:50:12.354Z,0.52
2023-11-15T04:51:12.339Z,0.52
2023-11-15T04:52:12.352Z,0.53
2023-11-15T04:53:12.327Z,0.54
2023-11-15T04:54:12.336Z,0.54
2023-11-15T04:55:12.306Z,0.53
2023-11-15T04:56:12.360Z,0.51
2023-11-15T04:57:12.293Z,0.51
2023-11-15T04:58:18.659Z,0.51
2023-11-15T04:59:12.272Z,0.51
2023-11-15T05:00:12.344Z,0.51
2023-11-15T05:01:12.263Z,0.51
2023-11-15T05:02:12.257Z,0.52
2023-11-15T05:03:12.326Z,0.52
2023-11-15T05:04:12.305Z,0.53
2023-11-15T05:05:12.273Z,0.51
2023-11-15T05:06:12.223Z,0.50
2023-11-15T05:07:12.204Z,0.52
2023-11-15T05:08:12.196Z,0.51
2023-11-15T05:09:12.183Z,0.51
2023-11-15T05:10:12.195Z,0.52
2023-11-15T05:11:12.172Z,0.52
2023-11-15T05:12:12.154Z,0.52
2023-11-15T05:13:12.145Z,0.52
2023-11-15T05:14:12.135Z,0.51
2023-11-15T05:15:12.138Z,0.51
2023-11-15T05:16:12.135Z,0.52
2023-11-15T05:17:12.105Z,0.51
2023-11-15T05:18:12.178Z,0.52
2023-11-15T05:19:12.088Z,0.53
2023-11-15T05:20:12.097Z,0.52
2023-11-15T05:21:12.072Z,0.52
2023-11-15T05:22:12.075Z,0.51
2023-11-15T05:23:12.059Z,0.52
2023-11-15T05:24:12.336Z,0.51
2023-11-15T05:25:12.039Z,0.52
2023-11-15T05:26:12.032Z,0.51
2023-11-15T05:27:12.031Z,0.52
2023-11-15T05:28:12.021Z,0.52
2023-11-15T05:29:12.013Z,0.51
2023-11-15T05:30:11.998Z,0.52
2023-11-15T05:31:11.985Z,0.51
2023-11-15T05:32:11.975Z,0.52
2023-11-15T05:33:12.031Z,0.53
2023-11-15T05:34:11.965Z,0.51
2023-11-15T05:35:11.961Z,0.53
2023-11-15T05:36:11.957Z,0.53
2023-11-15T05:37:11.935Z,0.52
2023-11-15T05:38:11.953Z,0.52
2023-11-15T05:39:11.908Z,0.53
2023-11-15T05:40:13.265Z,0.52
2023-11-15T05:41:11.890Z,0.52
2023-11-15T05:42:11.892Z,0.51
2023-11-15T05:43:11.886Z,0.52
2023-11-15T05:44:11.881Z,0.51
2023-11-15T05:45:12.045Z,0.50
2023-11-15T05:46:11.883Z,0.51
2023-11-15T05:47:11.835Z,0.52
2023-11-15T05:48:11.885Z,0.52
2023-11-15T05:49:11.836Z,0.51
2023-11-15T05:50:11.826Z,0.52
2023-11-15T05:51:11.807Z,0.51
2023-11-15T05:52:11.801Z,0.52
2023-11-15T05:53:11.809Z,0.51
2023-11-15T05:54:11.786Z,0.51
2023-11-15T05:55:11.782Z,0.53
2023-11-15T05:56:17.419Z,0.51
2023-11-15T05:57:11.758Z,0.51
2023-11-15T05:58:11.738Z,0.51
2023-11-15T05:59:11.733Z,0.51
2023-11-15T06:00:11.748Z,0.52
2023-11-15T06:01:11.715Z,0.52
2023-11-15T06:02:11.723Z,0.52
2023-11-15T06:03:11.812Z,0.51
2023-11-15T06:04:11.779Z,0.53
2023-11-15T06:05:11.675Z,0.51
2023-11-15T06:06:11.759Z,0.50
2023-11-15T06:07:11.663Z,0.51
2023-11-15T06:08:11.673Z,0.51
2023-11-15T06:09:11.666Z,0.52
2023-11-15T06:10:11.659Z,0.52
2023-11-15T06:11:11.624Z,0.53
2023-11-15T06:12:12.971Z,0.51
2023-11-15T06:13:11.618Z,0.52
2023-11-15T06:14:11.611Z,0.53
2023-11-15T06:15:11.746Z,0.51
2023-11-15T06:16:11.589Z,0.51
2023-11-15T06:17:11.624Z,0.52
2023-11-15T06:18:11.666Z,0.52
2023-11-15T06:19:11.559Z,0.52
2023-11-15T06:20:11.679Z,0.51
2023-11-15T06:21:11.540Z,0.51
2023-11-15T06:22:11.571Z,0.51
2023-11-15T06:23:11.521Z,0.52
2023-11-15T06:24:11.546Z,0.52
2023-11-15T06:25:11.498Z,0.52
2023-11-15T06:26:11.516Z,0.52
2023-11-15T06:27:11.493Z,0.51
2023-11-15T06:28:11.484Z,0.51
2023-11-15T06:29:11.460Z,0.52
2023-11-15T06:30:11.545Z,0.52
2023-11-15T06:31:11.443Z,0.53
2023-11-15T06:32:11.441Z,0.54
2023-11-15T06:33:16.197Z,0.52
2023-11-15T06:34:11.524Z,0.52
2023-11-15T06:35:11.399Z,0.52
2023-11-15T06:36:11.427Z,0.53
2023-11-15T06:37:11.384Z,0.54
2023-11-15T06:38:11.395Z,0.56
2023-11-15T06:39:11.373Z,0.54
2023-11-15T06:40:11.379Z,0.55
2023-11-15T06:41:11.966Z,0.55
2023-11-15T06:42:13.585Z,0.56
2023-11-15T06:43:11.482Z,0.57
2023-11-15T06:44:11.527Z,0.56
2023-11-15T06:45:11.499Z,0.56
2023-11-15T06:46:11.481Z,0.55
2023-11-15T06:47:11.483Z,0.54
2023-11-15T06:48:11.479Z,0.51
2023-11-15T06:49:11.441Z,0.52
2023-11-15T06:50:11.426Z,0.51
2023-11-15T06:51:11.514Z,0.51
2023-11-15T06:52:11.408Z,0.49
2023-11-15T06:53:11.388Z,0.51
2023-11-15T06:54:11.464Z,0.50
2023-11-15T06:55:11.434Z,0.50
2023-11-15T06:56:11.365Z,0.50
2023-11-15T06:57:11.396Z,0.50
2023-11-15T06:58:11.358Z,0.50
2023-11-15T06:59:11.352Z,0.51
2023-11-15T07:00:11.440Z,0.52
2023-11-15T07:01:11.388Z,0.50
2023-11-15T07:02:11.332Z,0.50
2023-11-15T07:03:11.363Z,0.51
2023-11-15T07:04:11.416Z,0.53
2023-11-15T07:05:11.320Z,0.54
2023-11-15T07:06:11.276Z,0.55
2023-11-15T07:07:11.269Z,0.55
2023-11-15T07:08:11.307Z,0.54
2023-11-15T07:09:11.303Z,0.54
2023-11-15T07:10:11.251Z,0.54
2023-11-15T07:11:11.237Z,0.55
2023-11-15T07:12:11.295Z,0.55
2023-11-15T07:13:11.229Z,0.56
2023-11-15T07:14:11.209Z,0.56
2023-11-15T07:15:11.221Z,0.56
2023-11-15T07:16:11.208Z,0.57
2023-11-15T07:17:11.191Z,0.56
2023-11-15T07:18:11.225Z,0.56
2023-11-15T07:19:11.183Z,0.56
2023-11-15T07:20:11.226Z,0.58
2023-11-15T07:21:11.187Z,0.59
2023-11-15T07:22:11.133Z,0.59
2023-11-15T07:23:11.136Z,0.59
2023-11-15T07:24:11.202Z,0.59
2023-11-15T07:25:11.118Z,0.61
2023-11-15T07:26:11.099Z,0.63
2023-11-15T07:27:11.196Z,0.64
2023-11-15T07:28:11.097Z,0.65
2023-11-15T07:29:11.092Z,0.66
2023-11-15T07:30:11.098Z,0.69
2023-11-15T07:31:11.055Z,0.70
2023-11-15T07:32:11.034Z,0.70
2023-11-15T07:33:11.114Z,0.71
2023-11-15T07:34:11.023Z,0.75
2023-11-15T07:35:11.016Z,0.76
2023-11-15T07:36:11.048Z,0.77
2023-11-15T07:37:11.009Z,0.78
2023-11-15T07:38:11.007Z,0.80
2023-11-15T07:39:10.996Z,0.83
2023-11-15T07:40:11.040Z,0.84
2023-11-15T07:41:10.976Z,0.87
2023-11-15T07:42:11.028Z,0.88
2023-11-15T07:43:10.954Z,0.91
2023-11-15T07:44:10.933Z,0.93
2023-11-15T07:45:11.050Z,0.93
2023-11-15T07:46:10.992Z,0.93
2023-11-15T07:47:10.921Z,0.98
2023-11-15T07:48:10.967Z,1.00
2023-11-15T07:49:10.902Z,1.04
2023-11-15T07:50:10.875Z,1.01
2023-11-15T07:51:10.891Z,1.02
2023-11-15T07:52:10.868Z,1.07
2023-11-15T07:53:10.867Z,1.11
2023-11-15T07:54:10.870Z,1.11
2023-11-15T07:55:10.851Z,1.12
2023-11-15T07:56:10.823Z,1.19
2023-11-15T07:57:10.853Z,1.18
2023-11-15T07:58:10.818Z,1.23
2023-11-15T07:59:10.803Z,1.25
2023-11-15T08:00:10.828Z,1.31
2023-11-15T08:01:10.786Z,1.35
2023-11-15T08:02:10.778Z,1.41
2023-11-15T08:03:10.857Z,1.48
2023-11-15T08:04:10.951Z,1.51
2023-11-15T08:05:10.758Z,1.54
2023-11-15T08:06:10.739Z,1.56
2023-11-15T08:07:10.750Z,1.62
2023-11-15T08:08:10.739Z,1.63
2023-11-15T08:09:10.722Z,1.63
2023-11-15T08:10:10.720Z,1.67
2023-11-15T08:11:10.705Z,1.62
2023-11-15T08:12:10.704Z,1.71
2023-11-15T08:13:10.701Z,1.74
2023-11-15T08:14:10.670Z,1.83
2023-11-15T08:15:10.755Z,1.87
2023-11-15T08:16:10.655Z,1.93
2023-11-15T08:17:10.643Z,1.96
2023-11-15T08:18:10.767Z,2.02
2023-11-15T08:19:10.696Z,2.05
2023-11-15T08:20:10.735Z,2.12
2023-11-15T08:21:10.691Z,2.12
2023-11-15T08:22:10.617Z,2.16
2023-11-15T08:23:10.604Z,2.25
2023-11-15T08:24:10.641Z,2.60
2023-11-15T08:25:10.706Z,2.63
2023-11-15T08:26:10.561Z,2.69
2023-11-15T08:27:10.655Z,2.86
2023-11-15T08:28:10.543Z,2.96
2023-11-15T08:29:10.545Z,3.07
2023-11-15T08:30:10.542Z,3.06
2023-11-15T08:31:10.525Z,3.11
2023-11-15T08:32:10.518Z,3.14
2023-11-15T08:33:10.662Z,3.17
2023-11-15T08:34:10.549Z,3.21
2023-11-15T08:35:10.505Z,3.26
2023-11-15T08:36:10.515Z,3.28
2023-11-15T08:37:10.470Z,3.28
2023-11-15T08:38:10.468Z,3.35
2023-11-15T08:39:10.498Z,3.30
2023-11-15T08:40:19.922Z,3.41
2023-11-15T08:41:11.483Z,3.42
2023-11-15T08:42:10.469Z,3.44
2023-11-15T08:43:10.429Z,3.49
2023-11-15T08:44:10.413Z,3.55
2023-11-15T08:45:10.503Z,3.63
2023-11-15T08:46:10.447Z,3.69
2023-11-15T08:47:10.392Z,3.80
2023-11-15T08:48:10.497Z,3.66
2023-11-15T08:49:10.423Z,3.03
2023-11-15T08:50:10.408Z,2.54
2023-11-15T08:51:10.386Z,2.35
2023-11-15T08:52:10.345Z,2.31
2023-11-15T08:53:10.328Z,2.11
2023-11-15T08:54:10.400Z,2.02
2023-11-15T08:55:10.311Z,1.93
2023-11-15T08:56:10.299Z,1.82
2023-11-15T08:57:10.318Z,1.71
2023-11-15T08:58:10.284Z,1.60
2023-11-15T08:59:10.288Z,1.50
2023-11-15T09:00:10.295Z,1.43
2023-11-15T09:01:10.350Z,1.35
2023-11-15T09:02:10.263Z,1.28
2023-11-15T09:03:10.350Z,1.22
2023-11-15T09:04:10.400Z,1.15
2023-11-15T09:05:10.228Z,1.10
2023-11-15T09:06:10.272Z,1.05
2023-11-15T09:07:10.225Z,0.99
2023-11-15T09:08:10.217Z,0.95
2023-11-15T09:09:10.227Z,0.89
2023-11-15T09:10:10.429Z,0.89
2023-11-15T09:11:10.163Z,0.86
2023-11-15T09:12:10.207Z,0.84
2023-11-15T09:13:10.264Z,0.79
2023-11-15T09:14:10.131Z,0.77
2023-11-15T09:15:10.265Z,0.77
2023-11-15T09:16:12.349Z,0.73
2023-11-15T09:17:10.162Z,0.72
2023-11-15T09:18:10.165Z,0.71
2023-11-15T09:19:10.097Z,0.69
2023-11-15T09:20:10.128Z,0.66
2023-11-15T09:21:10.126Z,0.65
2023-11-15T09:22:10.081Z,0.65
2023-11-15T09:23:18.513Z,0.65
2023-11-15T09:24:11.098Z,0.65
2023-11-15T09:25:11.498Z,0.65
2023-11-15T09:26:10.037Z,0.65
2023-11-15T09:27:10.090Z,0.65
2023-11-15T09:28:10.013Z,0.66
2023-11-15T09:29:10.017Z,0.65
2023-11-15T09:30:10.120Z,0.66
2023-11-15T09:31:10.001Z,0.66
2023-11-15T09:32:09.974Z,0.67
2023-11-15T09:33:10.072Z,0.68
2023-11-15T09:34:10.033Z,0.71
2023-11-15T09:35:09.960Z,0.71
2023-11-15T09:36:09.991Z,0.73
2023-11-15T09:37:09.944Z,0.73
2023-11-15T09:38:09.947Z,0.75
2023-11-15T09:39:09.975Z,0.76
2023-11-15T09:40:10.596Z,0.76
2023-11-15T09:41:09.906Z,0.79
2023-11-15T09:42:09.993Z,0.79
2023-11-15T09:43:09.914Z,0.81
2023-11-15T09:44:09.926Z,0.85
2023-11-15T09:45:09.864Z,0.84
2023-11-15T09:46:09.979Z,0.77
2023-11-15T09:47:09.859Z,0.74
2023-11-15T09:48:09.898Z,0.73
2023-11-15T09:49:09.971Z,0.71
2023-11-15T09:50:09.830Z,0.68
2023-11-15T09:51:09.867Z,0.65
2023-11-15T09:52:09.804Z,0.64
2023-11-15T09:53:09.804Z,0.60
2023-11-15T09:54:16.428Z,0.59
2023-11-15T09:55:10.806Z,0.58
2023-11-15T09:56:09.764Z,0.56
2023-11-15T09:57:09.810Z,0.55
2023-11-15T09:58:09.744Z,0.51
2023-11-15T10:00:16.222Z,0.52
2023-11-15T10:01:10.761Z,0.51
2023-11-15T10:02:09.736Z,0.51
2023-11-15T10:03:10.024Z,0.51
2023-11-15T10:04:09.698Z,0.50
2023-11-15T10:05:11.037Z,0.49
2023-11-15T10:06:09.720Z,0.50
2023-11-15T10:07:09.700Z,0.51
2023-11-15T10:08:09.654Z,0.51
2023-11-15T10:09:09.677Z,0.52
2023-11-15T10:10:09.658Z,0.51
2023-11-15T10:11:09.674Z,0.50
2023-11-15T10:12:10.028Z,0.52
2023-11-15T10:13:09.628Z,0.51
2023-11-15T10:14:09.668Z,0.50
2023-11-15T10:15:09.635Z,0.50
2023-11-15T10:16:09.670Z,0.51
2023-11-15T10:17:09.645Z,0.51
2023-11-15T10:18:09.654Z,0.51
2023-11-15T10:19:10.160Z,0.50
2023-11-15T10:20:09.566Z,0.51
2023-11-15T10:21:09.685Z,0.52
2023-11-15T10:22:09.532Z,0.53
2023-11-15T10:23:09.544Z,0.51
2023-11-15T10:24:09.587Z,0.53
2023-11-15T10:25:09.516Z,0.51
2023-11-15T10:26:09.497Z,0.51
2023-11-15T10:27:09.549Z,0.50
2023-11-15T10:28:09.506Z,0.52
2023-11-15T10:29:10.508Z,0.51
2023-11-15T10:30:09.519Z,0.51
2023-11-15T10:31:09.495Z,0.51
2023-11-15T10:32:09.480Z,0.51
2023-11-15T10:33:09.501Z,0.53
2023-11-15T10:34:13.072Z,0.52
2023-11-15T10:35:10.440Z,0.52
2023-11-15T10:36:09.461Z,0.52
2023-11-15T10:37:09.430Z,0.52
2023-11-15T10:38:09.439Z,0.52
2023-11-15T10:39:09.445Z,0.52
2023-11-15T10:40:09.384Z,0.52
2023-11-15T10:41:09.401Z,0.53
2023-11-15T10:42:09.368Z,0.52
2023-11-15T10:43:09.373Z,0.52
2023-11-15T10:44:09.344Z,0.52
2023-11-15T10:45:09.391Z,0.52
2023-11-15T10:46:09.359Z,0.51
2023-11-15T10:47:09.360Z,0.51
2023-11-15T10:48:09.912Z,0.51
2023-11-15T10:49:09.306Z,0.52
2023-11-15T10:50:09.299Z,0.51
2023-11-15T10:51:09.342Z,0.50
2023-11-15T10:52:09.302Z,0.50
2023-11-15T10:53:09.277Z,0.51
2023-11-15T10:54:09.294Z,0.52
2023-11-15T10:55:09.253Z,0.51
2023-11-15T10:56:09.242Z,0.51
2023-11-15T10:57:09.265Z,0.52
2023-11-15T10:58:09.221Z,0.52
2023-11-15T10:59:09.208Z,0.51
2023-11-15T11:00:09.233Z,0.52
2023-11-15T11:01:09.199Z,0.51
2023-11-15T11:02:09.193Z,0.51
2023-11-15T11:03:09.233Z,0.52
2023-11-15T11:04:09.291Z,0.51
2023-11-15T11:05:09.172Z,0.52
2023-11-15T11:06:09.173Z,0.52
2023-11-15T11:07:09.176Z,0.51
2023-11-15T11:08:09.133Z,0.52
2023-11-15T11:09:09.205Z,0.52
2023-11-15T11:10:09.109Z,0.52
2023-11-15T11:11:09.148Z,0.56
2023-11-15T11:12:09.119Z,0.60
2023-11-15T11:13:09.095Z,0.61
2023-11-15T11:14:09.104Z,0.61
2023-11-15T11:15:09.089Z,0.61
2023-11-15T11:16:09.670Z,0.60
2023-11-15T11:17:09.077Z,0.60
2023-11-15T11:18:09.110Z,0.60
2023-11-15T11:19:09.031Z,0.62
2023-11-15T11:20:09.036Z,0.63
2023-11-15T11:21:09.051Z,0.62
2023-11-15T11:22:09.300Z,0.62
2023-11-15T11:23:09.044Z,0.64
2023-11-15T11:24:09.025Z,0.65
2023-11-15T11:25:08.983Z,0.66
2023-11-15T11:26:08.991Z,0.67
2023-11-15T11:27:09.012Z,0.68
2023-11-15T11:28:08.960Z,0.67
2023-11-15T11:29:08.963Z,0.69
2023-11-15T11:30:09.060Z,0.68
2023-11-15T11:31:08.949Z,0.69
2023-11-15T11:32:08.928Z,0.69
2023-11-15T11:33:09.003Z,0.69
2023-11-15T11:34:08.903Z,0.71
2023-11-15T11:35:08.984Z,0.70
2023-11-15T11:36:08.979Z,0.70
2023-11-15T11:37:08.918Z,0.70
2023-11-15T11:38:08.920Z,0.69
2023-11-15T11:39:08.938Z,0.71
2023-11-15T11:40:08.879Z,0.69
2023-11-15T11:41:08.836Z,0.69
2023-11-15T11:42:08.861Z,0.71
2023-11-15T11:43:08.841Z,0.67
2023-11-15T11:44:08.845Z,0.69
2023-11-15T11:45:08.817Z,0.69
2023-11-15T11:46:08.832Z,0.66
2023-11-15T11:47:08.778Z,0.69
2023-11-15T11:48:08.836Z,0.69
2023-11-15T11:49:08.761Z,0.69
2023-11-15T11:50:08.784Z,0.69
2023-11-15T11:51:08.837Z,0.68
2023-11-15T11:52:08.750Z,0.67
2023-11-15T11:53:08.750Z,0.67
2023-11-15T11:54:08.758Z,0.67
2023-11-15T11:55:08.732Z,0.68
2023-11-15T11:56:08.768Z,0.66
2023-11-15T11:57:08.721Z,0.67
2023-11-15T11:58:08.712Z,0.68
2023-11-15T11:59:08.741Z,0.68
2023-11-15T12:00:08.710Z,0.68
2023-11-15T12:01:08.692Z,0.67
2023-11-15T12:02:08.658Z,0.67
2023-11-15T12:03:13.068Z,0.68
2023-11-15T12:04:08.743Z,0.69
2023-11-15T12:05:08.653Z,0.68
2023-11-15T12:06:09.131Z,0.69
2023-11-15T12:07:08.605Z,0.69
2023-11-15T12:08:09.678Z,0.69
2023-11-15T12:09:08.617Z,0.69
2023-11-15T12:10:08.605Z,0.69
2023-11-15T12:11:08.593Z,0.71
2023-11-15T12:12:08.588Z,0.72
2023-11-15T12:13:08.575Z,0.73
2023-11-15T12:14:08.546Z,0.73
2023-11-15T12:15:08.614Z,0.73
2023-11-15T12:16:08.544Z,0.75
2023-11-15T12:17:08.547Z,0.74
2023-11-15T12:18:08.742Z,0.73
2023-11-15T12:19:08.544Z,0.73
2023-11-15T12:20:08.523Z,0.74
2023-11-15T12:21:08.520Z,0.75
2023-11-15T12:22:08.495Z,0.74
2023-11-15T12:23:08.468Z,0.74
2023-11-15T12:24:08.580Z,0.74
2023-11-15T12:25:08.452Z,0.74
2023-11-15T12:26:08.533Z,0.75
2023-11-15T12:27:08.465Z,0.73
2023-11-15T12:28:08.446Z,0.72
2023-11-15T12:29:08.411Z,0.72
2023-11-15T12:30:08.450Z,0.74
2023-11-15T12:31:08.453Z,0.74
2023-11-15T12:32:08.393Z,0.73
2023-11-15T12:33:08.437Z,0.73
2023-11-15T12:34:08.377Z,0.74
2023-11-15T12:35:08.375Z,0.74
2023-11-15T12:36:08.482Z,0.72
2023-11-15T12:37:08.346Z,0.73
2023-11-15T12:38:08.346Z,0.73
2023-11-15T12:39:08.386Z,0.74
2023-11-15T12:40:08.369Z,0.77
2023-11-15T12:41:08.314Z,0.76
2023-11-15T12:42:08.363Z,0.75
2023-11-15T12:43:08.295Z,0.72
2023-11-15T12:44:08.309Z,0.71
2023-11-15T12:45:08.321Z,0.71
2023-11-15T12:46:08.447Z,0.70
2023-11-15T12:47:08.286Z,0.67
2023-11-15T12:48:08.326Z,0.63
2023-11-15T12:49:08.235Z,0.59
2023-11-15T12:50:08.269Z,0.59
2023-11-15T12:51:08.253Z,0.56
2023-11-15T12:52:08.224Z,0.56
2023-11-15T12:53:08.218Z,0.54
2023-11-15T12:54:08.233Z,0.54
2023-11-15T12:55:08.231Z,0.54
2023-11-15T12:56:08.203Z,0.53
2023-11-15T12:57:08.206Z,0.55
2023-11-15T12:58:08.174Z,0.58
2023-11-15T12:59:08.148Z,0.56
2023-11-15T13:00:08.150Z,0.57
2023-11-15T13:01:08.216Z,0.60
2023-11-15T13:02:13.156Z,0.58
2023-11-15T13:03:08.272Z,0.58
2023-11-15T13:04:08.209Z,0.58
2023-11-15T13:05:08.176Z,0.58
2023-11-15T13:06:08.146Z,0.58
2023-11-15T13:07:08.090Z,0.59
2023-11-15T13:08:08.074Z,0.58
2023-11-15T13:09:08.116Z,0.58
2023-11-15T13:10:08.057Z,0.57
2023-11-15T13:11:08.041Z,0.57
2023-11-15T13:12:08.073Z,0.57
2023-11-15T13:13:08.034Z,0.55
2023-11-15T13:14:08.029Z,0.56
2023-11-15T13:15:08.024Z,0.56
2023-11-15T13:16:08.022Z,0.56
2023-11-15T13:17:08.038Z,0.55
2023-11-15T13:18:08.096Z,0.55
2023-11-15T13:19:07.972Z,0.55